ENEV

Harstad/Narvik

Airport
ICAO code
ENEV
Summary
ICAO Region
EUR
ICAO Territory
Location

Evenes, Norway,

Serving
Harstad/Narvik
Coordinates
68° 29' 18" N , 16° 40' 42" E
KCC
Cfc
Airport WX
Low Level Turbulence
Metar
Observation
ENEV 100950Z 18007KT 9999 -RADZ SCT018 BKN049 14/12 Q1006 RMK WIND 1400FT 21011KT
Station
Evenes
Date/Time
2022-08-10 09:50:00
Wind direction
180°
Wind speed
07 kts
Lowest cloud amount
scattered clouds
Temperature
14°C
Dew point
12°C
Humidity
87%
QNH
1006 hPa
Weather condition
drizzle

Description

International airport at Evenes which serves the towns of Harstad and Narvik, northern Norway.

Climatology

Subpolar Oceanic climate (Köppen climate classification Cfc) - uniform precipitation distribution, temperatures are moderated by the proximity of the ocean and warm currents - cool summers and comparatively mild winters.

Runways

Designator Length Width Surface Rops
17/35 2815 45 ASP Yes/Yes

Airport map

Aerial View

SKYbrary Partners:

Safety knowledge contributed by: